createdAt,value
2019-03-09T00:00:28.049Z,7.22
2019-03-09T00:01:28.046Z,7.22
2019-03-09T00:02:27.984Z,7.22
2019-03-09T00:03:28.039Z,7.20
2019-03-09T00:04:27.975Z,7.22
2019-03-09T00:05:28.042Z,7.22
2019-03-09T00:06:28.042Z,7.22
2019-03-09T00:07:27.974Z,7.22
2019-03-09T00:08:28.044Z,7.26
2019-03-09T00:09:27.988Z,7.27
2019-03-09T00:10:28.043Z,7.26
2019-03-09T00:11:27.999Z,7.26
2019-03-09T00:12:28.061Z,7.26
2019-03-09T00:13:28.057Z,7.24
2019-03-09T00:14:28.001Z,7.23
2019-03-09T00:15:28.066Z,7.22
2019-03-09T00:16:28.056Z,7.22
2019-03-09T00:17:28.066Z,7.22
2019-03-09T00:18:28.064Z,7.23
2019-03-09T00:19:28.000Z,7.23
2019-03-09T00:20:28.064Z,7.22
2019-03-09T00:21:28.062Z,7.22
2019-03-09T00:22:28.071Z,7.19
2019-03-09T00:23:28.063Z,7.19
2019-03-09T00:24:28.067Z,7.19
2019-03-09T00:25:28.109Z,7.19
2019-03-09T00:26:28.030Z,7.19
2019-03-09T00:27:30.166Z,7.19
2019-03-09T00:28:27.993Z,7.18
2019-03-09T00:29:27.999Z,7.18
2019-03-09T00:30:27.966Z,7.19
2019-03-09T00:31:28.070Z,7.19
2019-03-09T00:32:28.011Z,7.19
2019-03-09T00:33:28.004Z,7.18
2019-03-09T00:34:28.072Z,7.19
2019-03-09T00:35:28.029Z,7.20
2019-03-09T00:36:28.217Z,7.20
2019-03-09T00:37:28.073Z,7.22
2019-03-09T00:38:28.073Z,7.24
2019-03-09T00:39:28.003Z,7.24
2019-03-09T00:40:28.035Z,7.26
2019-03-09T00:41:28.008Z,7.26
2019-03-09T00:42:28.008Z,7.27
2019-03-09T00:43:28.074Z,7.27
2019-03-09T00:44:28.005Z,7.30
2019-03-09T00:45:28.071Z,7.31
2019-03-09T00:46:28.003Z,7.31
2019-03-09T00:47:28.002Z,7.33
2019-03-09T00:48:28.077Z,7.33
2019-03-09T00:49:28.002Z,7.31
2019-03-09T00:50:28.075Z,7.30
2019-03-09T00:51:28.077Z,7.31
2019-03-09T00:52:28.076Z,7.29
2019-03-09T00:53:28.028Z,7.27
2019-03-09T00:54:28.076Z,7.29
2019-03-09T00:55:28.004Z,7.27
2019-03-09T00:56:28.006Z,7.24
2019-03-09T00:57:28.083Z,7.24
2019-03-09T00:58:28.018Z,7.24
2019-03-09T00:59:28.083Z,7.23
2019-03-09T01:00:28.010Z,7.22
2019-03-09T01:01:28.092Z,7.19
2019-03-09T01:02:28.023Z,7.16
2019-03-09T01:03:28.091Z,7.15
2019-03-09T01:04:28.022Z,7.12
2019-03-09T01:05:28.096Z,7.11
2019-03-09T01:06:28.058Z,7.11
2019-03-09T01:07:28.024Z,7.12
2019-03-09T01:08:28.026Z,7.12
2019-03-09T01:09:28.027Z,7.13
2019-03-09T01:10:28.028Z,7.12
2019-03-09T01:11:28.105Z,7.11
2019-03-09T01:12:28.029Z,7.09
2019-03-09T01:13:28.043Z,7.09
2019-03-09T01:14:28.148Z,7.13
2019-03-09T01:15:28.103Z,7.15
2019-03-09T01:16:28.065Z,7.16
2019-03-09T01:17:28.203Z,7.15
2019-03-09T01:18:28.102Z,7.16
2019-03-09T01:19:28.041Z,7.13
2019-03-09T01:20:28.036Z,7.15
2019-03-09T01:21:28.111Z,7.18
2019-03-09T01:22:28.035Z,7.19
2019-03-09T01:23:28.038Z,7.22
2019-03-09T01:24:28.107Z,7.22
2019-03-09T01:25:28.035Z,7.20
2019-03-09T01:26:28.101Z,7.24
2019-03-09T01:27:28.038Z,7.26
2019-03-09T01:28:28.101Z,7.26
2019-03-09T01:29:28.049Z,7.27
2019-03-09T01:30:28.045Z,7.24
2019-03-09T01:31:28.042Z,7.23
2019-03-09T01:32:28.122Z,7.23
2019-03-09T01:33:28.116Z,7.22
2019-03-09T01:34:28.064Z,7.22
2019-03-09T01:35:28.078Z,7.23
2019-03-09T01:36:28.045Z,7.24
2019-03-09T01:37:28.057Z,7.30
2019-03-09T01:38:28.056Z,7.33
2019-03-09T01:39:28.118Z,7.33
2019-03-09T01:40:28.120Z,7.31
2019-03-09T01:41:28.045Z,7.31
2019-03-09T01:42:28.116Z,7.31
2019-03-09T01:43:28.042Z,7.34
2019-03-09T01:44:28.112Z,7.33
2019-03-09T01:45:28.042Z,7.35
2019-03-09T01:46:28.121Z,7.37
2019-03-09T01:47:28.040Z,7.38
2019-03-09T01:48:28.113Z,7.38
2019-03-09T01:49:28.082Z,7.40
2019-03-09T01:50:28.125Z,7.41
2019-03-09T01:51:28.051Z,7.44
2019-03-09T01:52:28.152Z,7.48
2019-03-09T01:53:36.382Z,7.51
2019-03-09T01:54:28.075Z,7.53
2019-03-09T01:55:28.140Z,7.53
2019-03-09T01:56:28.129Z,7.52
2019-03-09T01:57:28.134Z,7.55
2019-03-09T01:58:28.132Z,7.55
2019-03-09T01:59:28.064Z,7.58
2019-03-09T02:00:28.148Z,7.59
2019-03-09T02:01:28.032Z,7.58
2019-03-09T02:02:28.124Z,7.58
2019-03-09T02:03:28.059Z,7.58
2019-03-09T02:04:28.125Z,7.58
2019-03-09T02:05:28.183Z,7.60
2019-03-09T02:06:28.060Z,7.60
2019-03-09T02:07:28.131Z,7.63
2019-03-09T02:08:28.059Z,7.65
2019-03-09T02:09:28.063Z,7.65
2019-03-09T02:10:28.131Z,7.64
2019-03-09T02:11:28.067Z,7.65
2019-03-09T02:12:28.153Z,7.60
2019-03-09T02:13:28.155Z,7.63
2019-03-09T02:14:28.070Z,7.58
2019-03-09T02:15:28.145Z,7.53
2019-03-09T02:16:28.149Z,7.53
2019-03-09T02:17:28.107Z,7.48
2019-03-09T02:18:28.090Z,7.46
2019-03-09T02:19:28.075Z,7.41
2019-03-09T02:20:28.146Z,7.41
2019-03-09T02:21:28.152Z,7.37
2019-03-09T02:22:28.140Z,7.33
2019-03-09T02:23:28.067Z,7.30
2019-03-09T02:24:28.096Z,7.30
2019-03-09T02:25:28.074Z,7.27
2019-03-09T02:26:28.099Z,7.24
2019-03-09T02:27:28.081Z,7.20
2019-03-09T02:28:28.203Z,7.19
2019-03-09T02:29:28.179Z,7.16
2019-03-09T02:30:28.082Z,7.16
2019-03-09T02:31:28.149Z,7.15
2019-03-09T02:32:28.088Z,7.15
2019-03-09T02:33:28.147Z,7.11
2019-03-09T02:34:28.152Z,7.09
2019-03-09T02:35:28.082Z,7.05
2019-03-09T02:36:28.150Z,7.04
2019-03-09T02:37:28.084Z,7.05
2019-03-09T02:38:28.154Z,7.04
2019-03-09T02:39:28.082Z,7.00
2019-03-09T02:40:28.081Z,6.95
2019-03-09T02:41:28.158Z,6.95
2019-03-09T02:42:28.091Z,6.93
2019-03-09T02:43:28.176Z,6.90
2019-03-09T02:44:28.205Z,6.87
2019-03-09T02:45:28.146Z,6.89
2019-03-09T02:46:28.116Z,6.89
2019-03-09T02:47:28.176Z,6.84
2019-03-09T02:48:28.161Z,6.82
2019-03-09T02:49:28.185Z,6.78
2019-03-09T02:50:28.113Z,6.77
2019-03-09T02:51:28.103Z,6.77
2019-03-09T02:52:28.076Z,6.72
2019-03-09T02:53:28.113Z,6.71
2019-03-09T02:54:28.173Z,6.67
2019-03-09T02:55:28.103Z,6.68
2019-03-09T02:56:28.118Z,6.68
2019-03-09T02:57:28.181Z,6.68
2019-03-09T02:58:28.106Z,6.67
2019-03-09T02:59:28.119Z,6.64
2019-03-09T03:00:28.182Z,6.60
2019-03-09T03:01:28.184Z,6.59
2019-03-09T03:02:28.189Z,6.57
2019-03-09T03:03:28.147Z,6.55
2019-03-09T03:04:28.181Z,6.52
2019-03-09T03:05:28.114Z,6.48
2019-03-09T03:06:28.120Z,6.47
2019-03-09T03:07:28.185Z,6.43
2019-03-09T03:08:28.112Z,6.41
2019-03-09T03:09:28.114Z,6.41
2019-03-09T03:10:28.197Z,6.41
2019-03-09T03:11:28.122Z,6.41
2019-03-09T03:12:28.035Z,6.40
2019-03-09T03:13:28.135Z,6.41
2019-03-09T03:14:28.117Z,6.41
2019-03-09T03:15:28.077Z,6.44
2019-03-09T03:16:28.030Z,6.45
2019-03-09T03:17:28.123Z,6.47
2019-03-09T03:18:28.011Z,6.47
2019-03-09T03:19:28.018Z,6.47
2019-03-09T03:20:28.119Z,6.44
2019-03-09T03:21:28.074Z,6.45
2019-03-09T03:22:28.147Z,6.48
2019-03-09T03:23:28.157Z,6.49
2019-03-09T03:24:28.086Z,6.49
2019-03-09T03:25:28.200Z,6.52
2019-03-09T03:26:28.124Z,6.52
2019-03-09T03:27:28.144Z,6.52
2019-03-09T03:28:28.135Z,6.52
2019-03-09T03:29:28.140Z,6.52
2019-03-09T03:30:28.204Z,6.52
2019-03-09T03:31:28.204Z,6.52
2019-03-09T03:32:28.131Z,6.52
2019-03-09T03:33:28.261Z,6.52
2019-03-09T03:34:28.203Z,6.52
2019-03-09T03:35:28.132Z,6.52
2019-03-09T03:36:28.144Z,6.52
2019-03-09T03:37:28.205Z,6.52
2019-03-09T03:38:28.226Z,6.52
2019-03-09T03:39:28.176Z,6.52
2019-03-09T03:40:28.210Z,6.52
2019-03-09T03:41:28.211Z,6.52
2019-03-09T03:42:28.163Z,6.52
2019-03-09T03:43:28.097Z,6.52
2019-03-09T03:44:28.225Z,6.52
2019-03-09T03:45:28.134Z,6.52
2019-03-09T03:46:28.154Z,6.52
2019-03-09T03:47:28.210Z,6.52
2019-03-09T03:48:28.138Z,6.52
2019-03-09T03:49:28.137Z,6.52
2019-03-09T03:50:28.139Z,6.52
2019-03-09T03:51:28.228Z,6.52
2019-03-09T03:52:28.146Z,6.52
2019-03-09T03:53:28.215Z,6.52
2019-03-09T03:54:28.247Z,6.52
2019-03-09T03:55:28.219Z,6.52
2019-03-09T03:56:28.231Z,6.52
2019-03-09T03:57:28.148Z,6.52
2019-03-09T03:58:28.151Z,6.52
2019-03-09T03:59:28.152Z,6.52
2019-03-09T04:00:28.185Z,6.52
2019-03-09T04:01:28.147Z,6.52
2019-03-09T04:02:28.218Z,6.52
2019-03-09T04:03:28.222Z,6.52
2019-03-09T04:04:28.234Z,6.52
2019-03-09T04:05:28.154Z,6.52
2019-03-09T04:06:28.170Z,6.52
2019-03-09T04:07:28.167Z,6.52
2019-03-09T04:08:28.289Z,6.52
2019-03-09T04:09:28.266Z,6.52
2019-03-09T04:10:28.239Z,6.52
2019-03-09T04:11:28.232Z,6.52
2019-03-09T04:12:28.168Z,6.52
2019-03-09T04:13:28.156Z,6.52
2019-03-09T04:14:28.219Z,6.52
2019-03-09T04:15:28.219Z,6.52
2019-03-09T04:16:28.227Z,6.52
2019-03-09T04:17:28.241Z,6.52
2019-03-09T04:18:28.161Z,6.52
2019-03-09T04:19:28.296Z,6.52
2019-03-09T04:20:28.166Z,6.52
2019-03-09T04:21:28.164Z,6.52
2019-03-09T04:22:28.209Z,6.52
2019-03-09T04:23:28.221Z,6.52
2019-03-09T04:24:28.101Z,6.52
2019-03-09T04:25:28.234Z,6.52
2019-03-09T04:26:28.139Z,6.52
2019-03-09T04:27:28.217Z,6.52
2019-03-09T04:28:28.205Z,6.52
2019-03-09T04:29:28.229Z,6.52
2019-03-09T04:30:28.161Z,6.52
2019-03-09T04:31:28.196Z,6.52
2019-03-09T04:32:28.180Z,6.52
2019-03-09T04:33:28.232Z,6.52
2019-03-09T04:34:28.255Z,6.52
2019-03-09T04:35:28.219Z,6.52
2019-03-09T04:36:28.174Z,6.52
2019-03-09T04:37:28.108Z,6.52
2019-03-09T04:38:28.203Z,6.52
2019-03-09T04:39:28.221Z,6.52
2019-03-09T04:40:28.166Z,6.52
2019-03-09T04:41:28.225Z,6.52
2019-03-09T04:42:28.207Z,6.52
2019-03-09T04:43:28.168Z,6.52
2019-03-09T04:44:28.201Z,6.52
2019-03-09T04:45:28.230Z,6.52
2019-03-09T04:46:28.185Z,6.52
2019-03-09T04:47:28.242Z,6.52
2019-03-09T04:48:28.148Z,6.52
2019-03-09T04:49:28.223Z,6.52
2019-03-09T04:50:28.212Z,6.52
2019-03-09T04:51:28.125Z,6.52
2019-03-09T04:52:28.310Z,6.52
2019-03-09T04:53:28.202Z,6.52
2019-03-09T04:54:28.211Z,6.52
2019-03-09T04:55:28.184Z,6.52
2019-03-09T04:56:28.281Z,6.52
2019-03-09T04:57:28.193Z,6.52
2019-03-09T04:58:28.206Z,6.52
2019-03-09T04:59:28.187Z,6.52
2019-03-09T05:00:28.268Z,6.52
2019-03-09T05:01:28.200Z,6.52
2019-03-09T05:02:28.252Z,6.52
2019-03-09T05:03:28.197Z,6.52
2019-03-09T05:04:28.163Z,6.52
2019-03-09T05:05:28.240Z,6.52
2019-03-09T05:06:28.244Z,6.52
2019-03-09T05:07:28.252Z,6.52
2019-03-09T05:08:28.217Z,6.52
2019-03-09T05:09:28.251Z,6.52
2019-03-09T05:10:28.133Z,6.52
2019-03-09T05:11:28.125Z,6.52
2019-03-09T05:12:28.267Z,6.52
2019-03-09T05:13:28.271Z,6.52
2019-03-09T05:14:28.281Z,6.52
2019-03-09T05:15:28.206Z,6.52
2019-03-09T05:16:28.212Z,6.52
2019-03-09T05:17:28.272Z,6.52
2019-03-09T05:18:28.204Z,6.52
2019-03-09T05:19:28.170Z,6.52
2019-03-09T05:20:28.275Z,6.52
2019-03-09T05:21:28.277Z,6.52
2019-03-09T05:22:28.266Z,6.52
2019-03-09T05:23:28.198Z,6.52
2019-03-09T05:24:28.206Z,6.52
2019-03-09T05:25:28.270Z,6.52
2019-03-09T05:26:28.270Z,6.52
2019-03-09T05:27:28.280Z,6.52
2019-03-09T05:28:28.272Z,6.52
2019-03-09T05:29:28.196Z,6.52
2019-03-09T05:30:28.272Z,6.52
2019-03-09T05:31:28.271Z,6.52
2019-03-09T05:32:28.221Z,6.52
2019-03-09T05:33:28.284Z,6.52
2019-03-09T05:34:28.289Z,6.52
2019-03-09T05:35:28.218Z,6.52
2019-03-09T05:36:28.218Z,6.52
2019-03-09T05:37:28.243Z,6.52
2019-03-09T05:38:28.287Z,6.52
2019-03-09T05:39:28.188Z,6.52
2019-03-09T05:40:28.293Z,6.52
2019-03-09T05:41:28.293Z,6.52
2019-03-09T05:42:28.298Z,6.52
2019-03-09T05:43:28.320Z,6.52
2019-03-09T05:44:28.209Z,6.52
2019-03-09T05:45:28.347Z,6.52
2019-03-09T05:46:28.236Z,6.52
2019-03-09T05:47:28.244Z,6.52
2019-03-09T05:48:28.300Z,6.52
2019-03-09T05:49:28.307Z,6.52
2019-03-09T05:50:28.309Z,6.52
2019-03-09T05:51:28.227Z,6.52
2019-03-09T05:52:28.241Z,6.52
2019-03-09T05:53:28.290Z,6.52
2019-03-09T05:54:28.218Z,6.52
2019-03-09T05:55:28.293Z,6.52
2019-03-09T05:56:28.220Z,6.52
2019-03-09T05:57:28.290Z,6.52
2019-03-09T05:58:28.237Z,6.52
2019-03-09T05:59:28.291Z,6.52
2019-03-09T06:00:28.226Z,6.52
2019-03-09T06:01:28.230Z,6.52
2019-03-09T06:02:28.295Z,6.52
2019-03-09T06:03:28.237Z,6.52
2019-03-09T06:04:28.298Z,6.52
2019-03-09T06:05:28.247Z,6.52
2019-03-09T06:06:28.298Z,6.52
2019-03-09T06:07:28.223Z,6.52
2019-03-09T06:08:28.305Z,6.52
2019-03-09T06:09:28.235Z,6.52
2019-03-09T06:10:28.299Z,6.52
2019-03-09T06:11:28.235Z,6.52
2019-03-09T06:12:28.228Z,6.52
2019-03-09T06:13:28.257Z,6.52
2019-03-09T06:14:28.309Z,6.52
2019-03-09T06:15:28.316Z,6.52
2019-03-09T06:16:28.323Z,6.52
2019-03-09T06:17:28.244Z,6.52
2019-03-09T06:18:28.317Z,6.52
2019-03-09T06:19:28.297Z,6.52
2019-03-09T06:20:28.260Z,6.52
2019-03-09T06:21:28.293Z,6.52
2019-03-09T06:22:28.309Z,6.52
2019-03-09T06:23:28.278Z,6.52
2019-03-09T06:24:28.322Z,6.52
2019-03-09T06:25:28.274Z,6.52
2019-03-09T06:26:28.339Z,6.52
2019-03-09T06:27:28.322Z,6.52
2019-03-09T06:28:28.324Z,6.52
2019-03-09T06:29:28.350Z,6.52
2019-03-09T06:30:28.329Z,6.52
2019-03-09T06:31:28.317Z,6.52
2019-03-09T06:32:28.324Z,6.52
2019-03-09T06:33:28.255Z,6.52
2019-03-09T06:34:28.278Z,6.52
2019-03-09T06:35:28.325Z,6.52
2019-03-09T06:36:28.330Z,6.52
2019-03-09T06:37:28.268Z,6.52
2019-03-09T06:38:28.333Z,6.52
2019-03-09T06:39:28.279Z,6.52
2019-03-09T06:40:28.261Z,6.52
2019-03-09T06:41:28.331Z,6.52
2019-03-09T06:42:28.268Z,6.52
2019-03-09T06:43:28.263Z,6.52
2019-03-09T06:44:28.378Z,6.52
2019-03-09T06:45:28.328Z,6.52
2019-03-09T06:46:28.263Z,6.52
2019-03-09T06:47:28.302Z,6.52
2019-03-09T06:48:28.279Z,6.52
2019-03-09T06:49:28.270Z,6.52
2019-03-09T06:50:28.331Z,6.52
2019-03-09T06:51:28.273Z,6.52
2019-03-09T06:52:28.349Z,6.52
2019-03-09T06:53:28.276Z,6.52
2019-03-09T06:54:28.342Z,6.52
2019-03-09T06:55:28.238Z,6.52
2019-03-09T06:56:28.243Z,6.52
2019-03-09T06:57:28.262Z,6.52
2019-03-09T06:58:28.224Z,6.52
2019-03-09T06:59:28.309Z,6.52
2019-03-09T07:00:28.352Z,6.52
2019-03-09T07:01:28.335Z,6.52
2019-03-09T07:02:28.336Z,6.52
2019-03-09T07:03:28.188Z,6.52
2019-03-09T07:04:28.284Z,6.52
2019-03-09T07:05:28.285Z,6.52
2019-03-09T07:06:28.282Z,6.52
2019-03-09T07:07:28.276Z,6.52
2019-03-09T07:08:28.278Z,6.52
2019-03-09T07:09:28.173Z,6.52
2019-03-09T07:10:28.232Z,6.52
2019-03-09T07:11:28.295Z,6.52
2019-03-09T07:12:28.268Z,6.52
2019-03-09T07:13:28.351Z,6.52
2019-03-09T07:14:28.349Z,6.52
2019-03-09T07:15:28.301Z,6.52
2019-03-09T07:16:28.359Z,6.52
2019-03-09T07:17:28.285Z,6.52
2019-03-09T07:18:28.361Z,6.52
2019-03-09T07:19:28.292Z,6.52
2019-03-09T07:20:28.287Z,6.52
2019-03-09T07:21:28.354Z,6.52
2019-03-09T07:22:28.373Z,6.52
2019-03-09T07:23:28.361Z,6.52
2019-03-09T07:24:28.356Z,6.52
2019-03-09T07:25:28.313Z,6.52
2019-03-09T07:26:28.357Z,6.52
2019-03-09T07:27:28.308Z,6.52
2019-03-09T07:28:28.289Z,6.52
2019-03-09T07:29:28.360Z,6.52
2019-03-09T07:30:28.429Z,6.52
2019-03-09T07:31:28.361Z,6.52
2019-03-09T07:32:28.267Z,6.52
2019-03-09T07:33:28.339Z,6.52
2019-03-09T07:34:28.322Z,6.52
2019-03-09T07:35:28.265Z,6.52
2019-03-09T07:36:28.306Z,6.52
2019-03-09T07:37:28.318Z,6.52
2019-03-09T07:38:28.365Z,6.52
2019-03-09T07:39:28.346Z,6.52
2019-03-09T07:40:28.351Z,6.52
2019-03-09T07:41:28.318Z,6.52
2019-03-09T07:42:28.279Z,6.52
2019-03-09T07:43:28.327Z,6.52
2019-03-09T07:44:28.360Z,6.52
2019-03-09T07:45:28.303Z,6.52
2019-03-09T07:46:28.366Z,6.52
2019-03-09T07:47:28.277Z,6.52
2019-03-09T07:48:28.353Z,6.52
2019-03-09T07:49:28.362Z,6.52
2019-03-09T07:50:28.352Z,6.52
2019-03-09T07:51:28.227Z,6.52
2019-03-09T07:52:28.272Z,6.52
2019-03-09T07:53:28.366Z,6.52
2019-03-09T07:54:28.332Z,6.52
2019-03-09T07:55:28.340Z,6.52
2019-03-09T07:56:28.302Z,6.52
2019-03-09T07:57:28.311Z,6.52
2019-03-09T07:58:28.389Z,6.52
2019-03-09T07:59:28.379Z,6.52
2019-03-09T08:00:28.372Z,6.52
2019-03-09T08:01:28.331Z,6.52
2019-03-09T08:02:28.381Z,6.52
2019-03-09T08:03:28.392Z,6.52
2019-03-09T08:04:28.351Z,6.52
2019-03-09T08:05:28.274Z,6.52
2019-03-09T08:06:28.344Z,6.52
2019-03-09T08:07:28.313Z,6.52
2019-03-09T08:08:28.380Z,6.52
2019-03-09T08:09:28.342Z,6.52
2019-03-09T08:10:28.268Z,6.52
2019-03-09T08:11:28.403Z,6.52
2019-03-09T08:12:28.389Z,6.52
2019-03-09T08:13:28.373Z,6.52
2019-03-09T08:14:28.380Z,6.52
2019-03-09T08:15:28.383Z,6.52
2019-03-09T08:16:35.570Z,6.52
2019-03-09T08:17:28.278Z,6.52
2019-03-09T08:18:28.354Z,6.52
2019-03-09T08:19:28.388Z,6.52
2019-03-09T08:20:28.283Z,6.52
2019-03-09T08:21:28.340Z,6.52
2019-03-09T08:22:28.391Z,6.52
2019-03-09T08:23:28.379Z,6.52
2019-03-09T08:24:28.373Z,6.52
2019-03-09T08:25:28.276Z,6.52
2019-03-09T08:26:28.375Z,6.52
2019-03-09T08:27:28.318Z,6.52
2019-03-09T08:28:28.325Z,6.52
2019-03-09T08:29:28.264Z,6.52
2019-03-09T08:30:28.337Z,6.52
2019-03-09T08:31:28.296Z,6.52
2019-03-09T08:32:28.402Z,6.52
2019-03-09T08:33:28.327Z,6.52
2019-03-09T08:34:28.286Z,6.52
2019-03-09T08:35:28.346Z,6.52
2019-03-09T08:36:28.331Z,6.52
2019-03-09T08:37:28.304Z,6.52
2019-03-09T08:38:28.300Z,6.52
2019-03-09T08:39:28.343Z,6.52
2019-03-09T08:40:28.419Z,6.52
2019-03-09T08:41:28.413Z,6.52
2019-03-09T08:42:28.318Z,6.52
2019-03-09T08:43:28.413Z,6.52
2019-03-09T08:44:28.352Z,6.52
2019-03-09T08:45:28.435Z,6.52
2019-03-09T08:46:28.435Z,6.52
2019-03-09T08:47:28.352Z,6.52
2019-03-09T08:48:28.426Z,6.52
2019-03-09T08:49:28.364Z,6.52
2019-03-09T08:50:28.327Z,6.52
2019-03-09T08:51:28.350Z,6.52
2019-03-09T08:52:28.420Z,6.52
2019-03-09T08:53:28.366Z,6.52
2019-03-09T08:54:28.421Z,6.52
2019-03-09T08:55:28.391Z,6.52
2019-03-09T08:56:28.362Z,6.52
2019-03-09T08:57:28.362Z,6.52
2019-03-09T08:58:28.444Z,6.52
2019-03-09T08:59:28.397Z,6.52
2019-03-09T09:00:30.246Z,6.52
2019-03-09T09:01:28.363Z,6.52
2019-03-09T09:02:28.316Z,6.52
2019-03-09T09:03:28.359Z,6.52
2019-03-09T09:04:28.402Z,6.52
2019-03-09T09:05:28.428Z,6.52
2019-03-09T09:06:28.432Z,6.52
2019-03-09T09:07:28.463Z,6.52
2019-03-09T09:08:28.369Z,6.52
2019-03-09T09:09:28.335Z,6.52
2019-03-09T09:10:28.431Z,6.52
2019-03-09T09:11:28.440Z,6.52
2019-03-09T09:12:28.438Z,6.52
2019-03-09T09:13:28.436Z,6.52
2019-03-09T09:14:28.438Z,6.52
2019-03-09T09:15:28.313Z,6.52
2019-03-09T09:16:28.427Z,6.52
2019-03-09T09:17:28.344Z,6.52
2019-03-09T09:18:28.433Z,6.52
2019-03-09T09:19:28.330Z,6.52
2019-03-09T09:20:28.358Z,6.52
2019-03-09T09:21:28.423Z,6.52
2019-03-09T09:22:28.365Z,6.52
2019-03-09T09:23:28.430Z,6.52
2019-03-09T09:24:28.425Z,6.52
2019-03-09T09:25:28.314Z,6.52
2019-03-09T09:26:28.399Z,6.52
2019-03-09T09:27:28.409Z,6.52
2019-03-09T09:28:28.313Z,6.52
2019-03-09T09:29:28.342Z,6.52
2019-03-09T09:30:28.322Z,6.52
2019-03-09T09:31:28.375Z,6.52
2019-03-09T09:32:28.369Z,6.52
2019-03-09T09:33:28.375Z,6.52
2019-03-09T09:34:28.434Z,6.52
2019-03-09T09:35:28.440Z,6.52
2019-03-09T09:36:28.410Z,6.52
2019-03-09T09:37:28.415Z,6.52
2019-03-09T09:38:28.371Z,6.52
2019-03-09T09:39:28.441Z,6.52
2019-03-09T09:40:28.405Z,6.52
2019-03-09T09:41:28.441Z,6.52
2019-03-09T09:42:28.334Z,6.52
2019-03-09T09:43:28.390Z,6.52
2019-03-09T09:44:28.443Z,6.52
2019-03-09T09:45:28.359Z,6.52
2019-03-09T09:46:28.421Z,6.52
2019-03-09T09:47:28.438Z,6.52
2019-03-09T09:48:28.348Z,6.52
2019-03-09T09:49:28.415Z,6.52
2019-03-09T09:50:28.480Z,6.52
2019-03-09T09:51:28.437Z,6.52
2019-03-09T09:52:28.395Z,6.52
2019-03-09T09:53:28.462Z,6.52
2019-03-09T09:54:28.464Z,6.52
2019-03-09T09:55:28.474Z,6.52
2019-03-09T09:56:28.404Z,6.52
2019-03-09T09:57:28.464Z,6.52
2019-03-09T09:58:28.479Z,6.52
2019-03-09T09:59:28.472Z,6.52
2019-03-09T10:00:28.403Z,6.52
2019-03-09T10:01:28.469Z,6.52
2019-03-09T10:02:28.439Z,6.52
2019-03-09T10:03:28.408Z,6.52
2019-03-09T10:04:28.457Z,6.52
2019-03-09T10:05:28.337Z,6.52
2019-03-09T10:06:28.451Z,6.52
2019-03-09T10:07:28.344Z,6.52
2019-03-09T10:08:28.370Z,6.52
2019-03-09T10:09:28.408Z,6.52
2019-03-09T10:10:29.884Z,6.52
2019-03-09T10:11:28.366Z,6.52
2019-03-09T10:12:28.375Z,6.52
2019-03-09T10:13:28.493Z,6.52
2019-03-09T10:14:28.430Z,6.52
2019-03-09T10:15:28.396Z,6.52
2019-03-09T10:16:28.364Z,6.52
2019-03-09T10:17:28.370Z,6.52
2019-03-09T10:18:28.470Z,6.52
2019-03-09T10:19:28.477Z,6.52
2019-03-09T10:20:28.489Z,6.52
2019-03-09T10:21:28.447Z,6.52
2019-03-09T10:22:28.478Z,6.52
2019-03-09T10:24:28.426Z,6.52
2019-03-09T10:25:28.513Z,6.52
2019-03-09T10:26:28.497Z,6.52
2019-03-09T10:27:28.485Z,6.52
2019-03-09T10:28:28.425Z,6.52
2019-03-09T10:29:28.430Z,6.52
2019-03-09T10:30:28.485Z,6.52
2019-03-09T10:31:28.495Z,6.52
2019-03-09T10:32:28.427Z,6.52
2019-03-09T10:33:28.409Z,6.52
2019-03-09T10:34:28.461Z,6.52
2019-03-09T10:35:28.421Z,6.52
2019-03-09T10:36:28.429Z,6.52
2019-03-09T10:37:28.383Z,6.52
2019-03-09T10:38:28.402Z,6.52
2019-03-09T10:39:28.444Z,6.52
2019-03-09T10:40:28.427Z,6.52
2019-03-09T10:41:28.382Z,6.52
2019-03-09T10:42:28.318Z,6.52
2019-03-09T10:43:28.492Z,6.52
2019-03-09T10:44:28.424Z,6.52
2019-03-09T10:45:28.421Z,6.52
2019-03-09T10:46:28.425Z,6.52
2019-03-09T10:47:28.504Z,6.52
2019-03-09T10:48:28.376Z,6.52
2019-03-09T10:49:28.419Z,6.52
2019-03-09T10:50:28.413Z,6.52
2019-03-09T10:51:28.460Z,6.52
2019-03-09T10:52:28.500Z,6.52
2019-03-09T10:53:28.435Z,6.52
2019-03-09T10:54:35.709Z,6.52
2019-03-09T10:55:28.422Z,6.52
2019-03-09T10:56:28.501Z,6.52
2019-03-09T10:57:28.500Z,6.52
2019-03-09T10:58:28.452Z,6.52
2019-03-09T10:59:28.502Z,6.52
2019-03-09T11:00:28.450Z,6.52
2019-03-09T11:01:28.383Z,6.52
2019-03-09T11:02:28.505Z,6.52
2019-03-09T11:03:28.510Z,6.52
2019-03-09T11:04:28.449Z,6.52
2019-03-09T11:05:28.520Z,6.52
2019-03-09T11:06:28.517Z,6.52
2019-03-09T11:07:28.453Z,6.52
2019-03-09T11:08:28.516Z,6.52
2019-03-09T11:09:28.516Z,6.52
2019-03-09T11:10:28.527Z,6.52
2019-03-09T11:11:28.520Z,6.52
2019-03-09T11:12:28.463Z,6.52
2019-03-09T11:13:28.477Z,6.52
2019-03-09T11:14:28.431Z,6.52
2019-03-09T11:15:28.447Z,6.52
2019-03-09T11:16:28.440Z,6.52
2019-03-09T11:17:28.546Z,6.52
2019-03-09T11:18:28.441Z,6.52
2019-03-09T11:19:28.485Z,6.52
2019-03-09T11:20:28.527Z,6.52
2019-03-09T11:21:28.428Z,6.52
2019-03-09T11:22:28.516Z,6.52
2019-03-09T11:23:28.416Z,6.52
2019-03-09T11:24:28.446Z,6.52
2019-03-09T11:25:28.446Z,6.52
2019-03-09T11:26:28.387Z,6.52
2019-03-09T11:27:28.393Z,6.52
2019-03-09T11:28:28.449Z,6.52
2019-03-09T11:29:28.497Z,6.52
2019-03-09T11:30:28.451Z,6.52
2019-03-09T11:31:28.485Z,6.52
2019-03-09T11:32:28.441Z,6.52
2019-03-09T11:33:28.523Z,6.52
2019-03-09T11:34:28.410Z,6.52
2019-03-09T11:35:28.491Z,6.52
2019-03-09T11:36:28.531Z,6.52
2019-03-09T11:37:28.526Z,6.52
2019-03-09T11:38:28.493Z,6.52
2019-03-09T11:39:28.471Z,6.52
2019-03-09T11:40:28.438Z,6.52
2019-03-09T11:41:28.544Z,6.52
2019-03-09T11:42:28.535Z,6.52
2019-03-09T11:43:28.537Z,6.52
2019-03-09T11:44:28.530Z,6.52
2019-03-09T11:45:28.520Z,6.52
2019-03-09T11:46:28.478Z,6.52
2019-03-09T11:47:28.480Z,6.52
2019-03-09T11:48:28.500Z,6.52
2019-03-09T11:49:28.428Z,6.52
2019-03-09T11:50:28.447Z,6.52
2019-03-09T11:51:28.439Z,6.52
2019-03-09T11:52:29.321Z,6.52
2019-03-09T11:53:28.455Z,6.52
2019-03-09T11:54:28.553Z,6.52
2019-03-09T11:55:28.502Z,6.52
2019-03-09T11:56:28.469Z,6.52
2019-03-09T11:57:28.468Z,6.52
2019-03-09T11:58:28.541Z,6.52
2019-03-09T11:59:28.517Z,6.52
2019-03-09T12:00:28.554Z,6.52
2019-03-09T12:01:28.542Z,6.52
2019-03-09T12:02:38.296Z,6.52
2019-03-09T12:03:28.447Z,6.52
2019-03-09T12:04:28.565Z,6.52
2019-03-09T12:05:28.500Z,6.52
2019-03-09T12:06:28.493Z,6.52
2019-03-09T12:07:28.570Z,6.52
2019-03-09T12:08:28.565Z,6.52
2019-03-09T12:09:28.555Z,6.52
2019-03-09T12:10:28.561Z,6.52
2019-03-09T12:11:28.563Z,6.52
2019-03-09T12:12:28.568Z,6.52
2019-03-09T12:13:28.499Z,6.52
2019-03-09T12:14:28.572Z,6.52
2019-03-09T12:15:28.496Z,6.52
2019-03-09T12:16:28.564Z,6.52
2019-03-09T12:17:28.572Z,6.52
2019-03-09T12:18:28.498Z,6.52
2019-03-09T12:19:28.567Z,6.52
2019-03-09T12:20:28.512Z,6.52
2019-03-09T12:21:28.576Z,6.52
2019-03-09T12:22:28.581Z,6.52
2019-03-09T12:23:28.455Z,6.52
2019-03-09T12:24:28.466Z,6.52
2019-03-09T12:25:28.540Z,6.52
2019-03-09T12:26:28.527Z,6.52
2019-03-09T12:27:28.402Z,6.52
2019-03-09T12:28:28.427Z,6.52
2019-03-09T12:29:28.526Z,6.52
2019-03-09T12:30:28.494Z,6.52
2019-03-09T12:31:28.521Z,6.52
2019-03-09T12:32:28.550Z,6.52
2019-03-09T12:33:28.444Z,6.52
2019-03-09T12:34:28.579Z,6.52
2019-03-09T12:35:28.589Z,6.52
2019-03-09T12:36:28.513Z,6.52
2019-03-09T12:37:28.582Z,6.52
2019-03-09T12:38:28.594Z,6.52
2019-03-09T12:39:28.580Z,6.52
2019-03-09T12:40:28.586Z,6.52
2019-03-09T12:41:28.517Z,6.52
2019-03-09T12:42:28.587Z,6.52
2019-03-09T12:43:28.594Z,6.52
2019-03-09T12:44:28.492Z,6.52
2019-03-09T12:45:28.487Z,6.52
2019-03-09T12:46:28.506Z,6.52
2019-03-09T12:47:28.546Z,6.52
2019-03-09T12:48:28.578Z,6.52
2019-03-09T12:49:28.582Z,6.52
2019-03-09T12:50:28.477Z,6.52
2019-03-09T12:51:28.584Z,6.52
2019-03-09T12:52:28.576Z,6.52
2019-03-09T12:53:28.497Z,6.52
2019-03-09T12:54:28.617Z,6.52
2019-03-09T12:55:28.521Z,6.52
2019-03-09T12:56:28.531Z,6.52
2019-03-09T12:57:28.593Z,6.52
2019-03-09T12:58:28.607Z,6.52
2019-03-09T12:59:28.594Z,6.52
2019-03-09T13:00:28.531Z,6.52
2019-03-09T13:01:28.595Z,6.52
2019-03-09T13:02:28.594Z,6.52
2019-03-09T13:03:28.612Z,6.52
2019-03-09T13:04:28.607Z,6.52
2019-03-09T13:05:28.536Z,6.52
2019-03-09T13:06:28.600Z,6.52
2019-03-09T13:07:28.533Z,6.52
2019-03-09T13:08:28.538Z,6.52
2019-03-09T13:09:28.603Z,6.52
2019-03-09T13:10:28.610Z,6.52
2019-03-09T13:11:28.605Z,6.52
2019-03-09T13:12:28.538Z,6.52
2019-03-09T13:13:28.543Z,6.52
2019-03-09T13:14:28.608Z,6.52
2019-03-09T13:15:28.550Z,6.52
2019-03-09T13:16:28.542Z,6.52
2019-03-09T13:17:28.608Z,6.52
2019-03-09T13:18:28.541Z,6.52
2019-03-09T13:19:28.612Z,6.52